createdAt,value
2018-03-28T00:01:22.000Z,13.80
2018-03-28T00:03:49.441Z,18.00
2018-03-28T00:06:16.877Z,15.63
2018-03-28T00:08:44.329Z,15.10
2018-03-28T00:11:12.547Z,15.17
2018-03-28T00:13:40.022Z,13.40
2018-03-28T00:16:07.460Z,17.03
2018-03-28T00:18:34.885Z,13.23
2018-03-28T00:21:02.357Z,14.73
2018-03-28T00:23:29.978Z,14.97
2018-03-28T00:25:57.436Z,14.00
2018-03-28T00:28:24.865Z,14.83
2018-03-28T00:30:52.314Z,14.53
2018-03-28T00:33:19.792Z,13.03
2018-03-28T00:35:47.216Z,16.33
2018-03-28T00:38:14.664Z,15.30
2018-03-28T00:40:42.191Z,16.57
2018-03-28T00:43:09.631Z,13.90
2018-03-28T00:45:37.155Z,15.00
2018-03-28T00:48:04.590Z,13.50
2018-03-28T00:50:32.107Z,17.30
2018-03-28T00:52:59.562Z,14.40
2018-03-28T00:55:27.013Z,16.67
2018-03-28T00:57:54.462Z,15.87
2018-03-28T01:00:21.891Z,15.07
2018-03-28T01:02:49.333Z,16.87
2018-03-28T01:05:16.770Z,16.17
2018-03-28T01:07:44.202Z,17.23
2018-03-28T01:10:11.649Z,15.60
2018-03-28T01:12:39.100Z,16.93
2018-03-28T01:15:06.612Z,16.53
2018-03-28T01:17:34.003Z,15.10
2018-03-28T01:20:01.431Z,13.60
2018-03-28T01:22:28.906Z,16.07
2018-03-28T01:24:59.447Z,14.30
2018-03-28T01:27:26.886Z,15.53
2018-03-28T01:29:54.341Z,15.17
2018-03-28T01:32:21.800Z,16.60
2018-03-28T01:34:50.017Z,16.10
2018-03-28T01:37:17.446Z,16.03
2018-03-28T01:39:44.916Z,15.10
2018-03-28T01:42:12.588Z,17.10
2018-03-28T01:44:40.016Z,14.97
2018-03-28T01:47:07.476Z,13.27
2018-03-28T01:49:36.842Z,17.33
2018-03-28T01:52:05.036Z,18.03
2018-03-28T01:54:32.498Z,18.90
2018-03-28T01:56:59.941Z,14.93
2018-03-28T01:59:27.389Z,14.90
2018-03-28T02:01:54.843Z,16.90
2018-03-28T02:04:22.299Z,15.83
2018-03-28T02:06:49.757Z,16.00
2018-03-28T02:09:17.195Z,17.37
2018-03-28T02:11:44.667Z,14.83
2018-03-28T02:14:12.115Z,17.07
2018-03-28T02:16:39.568Z,16.43
2018-03-28T02:19:07.005Z,16.20
2018-03-28T02:21:34.458Z,15.47
2018-03-28T02:24:01.906Z,15.03
2018-03-28T02:26:29.346Z,14.13
2018-03-28T02:28:56.769Z,17.03
2018-03-28T02:31:25.014Z,18.30
2018-03-28T02:33:52.590Z,16.13
2018-03-28T02:36:20.058Z,16.03
2018-03-28T02:38:47.502Z,18.50
2018-03-28T02:41:14.942Z,18.50
2018-03-28T02:43:42.405Z,13.50
2018-03-28T02:46:09.830Z,19.13
2018-03-28T02:48:37.432Z,17.37
2018-03-28T02:51:04.873Z,16.57
2018-03-28T02:53:32.302Z,14.87
2018-03-28T02:56:00.523Z,15.97
2018-03-28T02:58:27.961Z,18.60
2018-03-28T03:00:55.396Z,18.00
2018-03-28T03:03:23.598Z,16.30
2018-03-28T03:05:51.048Z,15.03
2018-03-28T03:08:19.270Z,18.90
2018-03-28T03:10:46.707Z,14.70
2018-03-28T03:13:14.172Z,19.70
2018-03-28T03:15:41.633Z,17.87
2018-03-28T03:18:09.327Z,17.87
2018-03-28T03:20:36.776Z,15.60
2018-03-28T03:23:04.210Z,15.33
2018-03-28T03:25:31.667Z,17.23
2018-03-28T03:27:59.109Z,20.40
2018-03-28T03:30:26.738Z,16.60
2018-03-28T03:32:55.733Z,17.67
2018-03-28T03:35:23.367Z,18.80
2018-03-28T03:37:50.820Z,15.63
2018-03-28T03:40:18.263Z,16.10
2018-03-28T03:42:45.890Z,16.10
2018-03-28T03:45:13.341Z,16.23
2018-03-28T03:47:40.782Z,16.50
2018-03-28T03:50:08.255Z,19.70
2018-03-28T03:52:35.701Z,15.40
2018-03-28T03:55:03.141Z,17.40
2018-03-28T03:57:30.932Z,17.50
2018-03-28T03:59:58.364Z,17.77
2018-03-28T04:02:25.813Z,15.97
2018-03-28T04:04:53.259Z,13.93
2018-03-28T04:07:20.701Z,14.40
2018-03-28T04:09:48.175Z,18.17
2018-03-28T04:12:15.606Z,15.17
2018-03-28T04:14:43.059Z,16.70
2018-03-28T04:17:10.493Z,16.07
2018-03-28T04:19:37.948Z,14.30
2018-03-28T04:22:05.389Z,12.90
2018-03-28T04:24:32.832Z,13.93
2018-03-28T04:27:00.277Z,15.27
2018-03-28T04:29:27.845Z,15.77
2018-03-28T04:31:55.293Z,17.40
2018-03-28T04:34:22.764Z,13.93
2018-03-28T04:36:50.200Z,16.07
2018-03-28T04:39:17.644Z,13.77
2018-03-28T04:41:45.082Z,15.17
2018-03-28T04:44:12.518Z,14.70
2018-03-28T04:46:39.973Z,12.30
2018-03-28T04:49:07.412Z,14.53
2018-03-28T04:51:34.872Z,15.23
2018-03-28T04:54:02.511Z,13.07
2018-03-28T04:56:30.206Z,13.57
2018-03-28T04:58:57.828Z,14.80
2018-03-28T05:01:25.280Z,25.97
2018-03-28T05:03:52.725Z,13.90
2018-03-28T05:06:20.158Z,12.40
2018-03-28T05:08:47.636Z,12.70
2018-03-28T05:11:15.101Z,11.97
2018-03-28T05:13:42.538Z,15.70
2018-03-28T05:16:09.989Z,12.10
2018-03-28T05:18:37.428Z,12.30
2018-03-28T05:21:04.866Z,12.63
2018-03-28T05:23:32.320Z,12.00
2018-03-28T05:26:01.267Z,13.50
2018-03-28T05:28:28.708Z,11.97
2018-03-28T05:30:56.149Z,12.30
2018-03-28T05:33:23.598Z,12.30
2018-03-28T05:35:51.041Z,12.67
2018-03-28T05:38:18.477Z,14.10
2018-03-28T05:40:45.956Z,12.00
2018-03-28T05:43:13.394Z,12.60
2018-03-28T05:45:40.837Z,12.10
2018-03-28T05:48:08.299Z,12.43
2018-03-28T05:50:35.730Z,12.63
2018-03-28T05:53:03.183Z,12.73
2018-03-28T05:55:30.635Z,12.00
2018-03-28T05:57:58.077Z,13.63
2018-03-28T06:00:25.517Z,12.43
2018-03-28T06:02:53.623Z,12.30
2018-03-28T06:05:21.082Z,17.50
2018-03-28T06:07:48.533Z,12.87
2018-03-28T06:10:15.977Z,11.20
2018-03-28T06:12:43.443Z,12.10
2018-03-28T06:15:11.106Z,11.53
2018-03-28T06:17:38.553Z,12.27
2018-03-28T06:20:06.075Z,11.63
2018-03-28T06:22:33.518Z,11.80
2018-03-28T06:25:00.969Z,11.47
2018-03-28T06:27:28.409Z,10.90
2018-03-28T06:29:55.837Z,11.20
2018-03-28T06:32:23.289Z,12.83
2018-03-28T06:34:51.481Z,11.10
2018-03-28T06:37:18.945Z,16.53
2018-03-28T06:39:46.386Z,11.97
2018-03-28T06:42:14.818Z,10.07
2018-03-28T06:44:42.385Z,10.77
2018-03-28T06:47:09.824Z,10.50
2018-03-28T06:49:37.286Z,10.27
2018-03-28T06:52:04.732Z,10.70
2018-03-28T06:54:32.166Z,13.93
2018-03-28T06:56:59.838Z,10.70
2018-03-28T06:59:27.287Z,13.10
2018-03-28T07:01:54.739Z,11.20
2018-03-28T07:04:22.170Z,10.20
2018-03-28T07:06:49.611Z,10.37
2018-03-28T07:09:17.053Z,11.23
2018-03-28T07:11:44.715Z,12.20
2018-03-28T07:14:12.185Z,13.80
2018-03-28T07:16:39.622Z,10.97
2018-03-28T07:19:07.052Z,9.90
2018-03-28T07:21:34.518Z,11.10
2018-03-28T07:24:02.333Z,10.27
2018-03-28T07:26:33.213Z,10.50
2018-03-28T07:29:00.636Z,10.47
2018-03-28T07:31:28.169Z,10.17
2018-03-28T07:33:55.617Z,10.10
2018-03-28T07:36:23.049Z,10.00
2018-03-28T07:38:50.511Z,10.33
2018-03-28T07:41:17.982Z,10.77
2018-03-28T07:43:45.418Z,10.70
2018-03-28T07:46:12.861Z,9.80
2018-03-28T07:48:40.316Z,14.90
2018-03-28T07:51:07.778Z,17.27
2018-03-28T07:53:36.203Z,12.23
2018-03-28T07:56:03.651Z,12.17
2018-03-28T07:58:31.328Z,14.70
2018-03-28T08:00:58.709Z,13.03
2018-03-28T08:03:26.156Z,10.83
2018-03-28T08:05:53.846Z,19.03
2018-03-28T08:08:21.290Z,10.40
2018-03-28T08:10:48.848Z,9.80
2018-03-28T08:13:16.259Z,9.77
2018-03-28T08:15:43.713Z,11.13
2018-03-28T08:18:11.363Z,9.93
2018-03-28T08:20:38.817Z,10.80
2018-03-28T08:23:06.277Z,9.60
2018-03-28T08:25:33.724Z,10.03
2018-03-28T08:28:01.184Z,10.33
2018-03-28T08:30:28.635Z,11.97
2018-03-28T08:32:58.343Z,11.57
2018-03-28T08:35:26.132Z,12.10
2018-03-28T08:37:53.566Z,9.50
2018-03-28T08:40:21.299Z,9.67
2018-03-28T08:42:48.738Z,11.03
2018-03-28T08:45:16.178Z,13.00
2018-03-28T08:47:43.625Z,21.23
2018-03-28T08:50:11.084Z,8.90
2018-03-28T08:52:38.537Z,9.10
2018-03-28T08:55:06.154Z,12.30
2018-03-28T08:57:33.610Z,11.30
2018-03-28T09:00:01.054Z,11.47
2018-03-28T09:02:28.494Z,11.43
2018-03-28T09:04:57.072Z,10.10
2018-03-28T09:07:24.509Z,14.53
2018-03-28T09:09:51.951Z,13.70
2018-03-28T09:12:19.401Z,10.50
2018-03-28T09:14:46.840Z,9.57
2018-03-28T09:17:14.287Z,9.60
2018-03-28T09:19:41.721Z,9.37
2018-03-28T09:22:09.170Z,10.97
2018-03-28T09:24:36.617Z,9.80
2018-03-28T09:27:04.275Z,10.17
2018-03-28T09:29:31.733Z,13.47
2018-03-28T09:31:59.168Z,9.73
2018-03-28T09:34:26.612Z,9.50
2018-03-28T09:36:54.077Z,13.00
2018-03-28T09:39:21.516Z,9.77
2018-03-28T09:41:48.970Z,9.70
2018-03-28T09:44:16.413Z,10.37
2018-03-28T09:46:43.866Z,8.33
2018-03-28T09:49:11.324Z,8.80
2018-03-28T09:51:38.803Z,14.00
2018-03-28T09:54:06.251Z,8.80
2018-03-28T09:56:33.713Z,10.13
2018-03-28T09:59:01.251Z,9.23
2018-03-28T10:01:30.557Z,9.13
2018-03-28T10:04:03.572Z,10.33
2018-03-28T10:06:31.043Z,10.20
2018-03-28T10:08:58.473Z,9.80
2018-03-28T10:11:25.931Z,9.50
2018-03-28T10:13:53.587Z,12.80
2018-03-28T10:16:21.033Z,8.70
2018-03-28T10:18:48.481Z,18.57
2018-03-28T10:21:15.950Z,10.00
2018-03-28T10:23:43.460Z,8.20
2018-03-28T10:26:11.206Z,9.53
2018-03-28T10:28:39.491Z,9.33
2018-03-28T10:31:06.933Z,10.50
2018-03-28T10:33:34.385Z,9.30
2018-03-28T10:36:01.836Z,8.20
2018-03-28T10:38:29.293Z,10.90
2018-03-28T10:40:56.737Z,8.97
2018-03-28T10:43:24.171Z,8.70
2018-03-28T10:45:51.619Z,8.83
2018-03-28T10:48:19.066Z,8.83
2018-03-28T10:50:46.526Z,11.67
2018-03-28T10:53:13.982Z,11.57
2018-03-28T10:55:41.426Z,16.13
2018-03-28T10:58:08.873Z,14.07
2018-03-28T11:00:36.324Z,9.97
2018-03-28T11:03:03.775Z,17.00
2018-03-28T11:05:31.215Z,9.90
2018-03-28T11:07:58.650Z,9.43
2018-03-28T11:10:26.419Z,15.53
2018-03-28T11:12:53.866Z,11.53
2018-03-28T11:15:21.313Z,12.47
2018-03-28T11:17:48.747Z,14.40
2018-03-28T11:20:16.192Z,13.10
2018-03-28T11:22:43.649Z,13.23
2018-03-28T11:25:11.083Z,9.70
2018-03-28T11:27:38.522Z,8.77
2018-03-28T11:30:05.969Z,10.30
2018-03-28T11:32:33.458Z,8.30
2018-03-28T11:35:00.858Z,7.60
2018-03-28T11:37:28.294Z,11.50
2018-03-28T11:39:55.746Z,5.90
2018-03-28T11:42:23.185Z,6.27
2018-03-28T11:44:50.688Z,12.33
2018-03-28T11:47:18.449Z,6.47
2018-03-28T11:49:46.005Z,7.70
2018-03-28T11:52:14.468Z,7.07
2018-03-28T11:54:41.901Z,6.60
2018-03-28T11:57:10.121Z,10.13
2018-03-28T11:59:37.573Z,7.57
2018-03-28T12:02:05.008Z,8.07
2018-03-28T12:04:32.518Z,11.47
2018-03-28T12:06:59.959Z,5.80
2018-03-28T12:09:27.405Z,6.50
2018-03-28T12:11:54.862Z,6.57
2018-03-28T12:14:22.302Z,9.33
2018-03-28T12:16:49.759Z,5.90
2018-03-28T12:19:17.959Z,11.57
2018-03-28T12:21:46.166Z,5.13
2018-03-28T12:24:13.757Z,6.80
2018-03-28T12:26:41.197Z,6.90
2018-03-28T12:29:08.681Z,6.70
2018-03-28T12:31:36.151Z,11.93
2018-03-28T12:34:03.604Z,5.90
2018-03-28T12:36:33.876Z,5.90
2018-03-28T12:39:01.556Z,6.07
2018-03-28T12:41:29.053Z,7.30
2018-03-28T12:43:56.498Z,6.83
2018-03-28T12:46:23.949Z,17.23
2018-03-28T12:48:52.860Z,5.80
2018-03-28T12:51:20.315Z,5.13
2018-03-28T12:53:47.760Z,4.57
2018-03-28T12:56:15.197Z,7.23
2018-03-28T12:58:42.684Z,5.30
2018-03-28T13:01:10.180Z,6.43
2018-03-28T13:03:37.627Z,4.87
2018-03-28T13:06:05.112Z,8.40
2018-03-28T13:08:32.570Z,7.03
2018-03-28T13:11:00.041Z,7.80
2018-03-28T13:13:27.493Z,6.00
2018-03-28T13:15:54.931Z,9.30
2018-03-28T13:18:22.384Z,4.60
2018-03-28T13:20:49.822Z,5.30
2018-03-28T13:23:17.275Z,4.40
2018-03-28T13:25:44.714Z,6.00
2018-03-28T13:28:12.928Z,8.23
2018-03-28T13:30:40.383Z,7.60
2018-03-28T13:33:07.839Z,4.83
2018-03-28T13:35:35.286Z,7.30
2018-03-28T13:38:02.739Z,10.47
2018-03-28T13:40:30.173Z,8.40
2018-03-28T13:42:57.629Z,5.50
2018-03-28T13:45:25.065Z,5.47
2018-03-28T13:47:52.508Z,7.87
2018-03-28T13:50:20.237Z,5.00
2018-03-28T13:52:47.685Z,7.97
2018-03-28T13:55:15.131Z,7.90
2018-03-28T13:57:42.565Z,4.07
2018-03-28T14:00:10.022Z,4.93
2018-03-28T14:02:37.454Z,6.97
2018-03-28T14:05:04.889Z,6.43
2018-03-28T14:07:32.341Z,11.30
2018-03-28T14:09:59.897Z,9.73
2018-03-28T14:12:27.349Z,7.20
2018-03-28T14:14:54.787Z,5.30
2018-03-28T14:17:22.217Z,7.07
2018-03-28T14:19:49.694Z,9.50
2018-03-28T14:22:17.159Z,7.60
2018-03-28T14:24:44.630Z,4.47
2018-03-28T14:27:12.029Z,4.80
2018-03-28T14:29:39.604Z,4.83
2018-03-28T14:32:07.082Z,4.73
2018-03-28T14:34:34.528Z,4.00
2018-03-28T14:37:02.009Z,5.20
2018-03-28T14:39:29.648Z,5.40
2018-03-28T14:41:57.085Z,6.43
2018-03-28T14:44:24.653Z,4.10
2018-03-28T14:46:52.086Z,5.30
2018-03-28T14:49:19.546Z,8.73
2018-03-28T14:51:46.978Z,7.20
2018-03-28T14:54:14.440Z,9.50
2018-03-28T14:56:41.893Z,5.10
2018-03-28T14:59:09.342Z,4.27
2018-03-28T15:01:36.824Z,4.83
2018-03-28T15:04:04.350Z,4.87
2018-03-28T15:06:31.778Z,5.07
2018-03-28T15:08:59.232Z,6.33
2018-03-28T15:11:26.868Z,9.93
2018-03-28T15:13:54.312Z,6.83
2018-03-28T15:16:21.792Z,7.53
2018-03-28T15:18:49.197Z,4.60
2018-03-28T15:21:16.897Z,8.70
2018-03-28T15:23:44.340Z,6.27
2018-03-28T15:26:11.784Z,4.57
2018-03-28T15:28:39.349Z,7.00
2018-03-28T15:31:06.785Z,5.13
2018-03-28T15:33:34.225Z,4.97
2018-03-28T15:36:01.672Z,5.80
2018-03-28T15:38:29.118Z,6.17
2018-03-28T15:40:56.575Z,3.97
2018-03-28T15:43:24.046Z,4.20
2018-03-28T15:45:51.902Z,4.80
2018-03-28T15:48:19.342Z,6.53
2018-03-28T15:50:46.795Z,5.90
2018-03-28T15:53:14.302Z,4.80
2018-03-28T15:55:41.729Z,5.33
2018-03-28T15:58:09.195Z,4.80
2018-03-28T16:00:36.637Z,9.40
2018-03-28T16:03:04.066Z,6.00
2018-03-28T16:05:32.277Z,3.90
2018-03-28T16:08:06.551Z,5.60
2018-03-28T16:10:34.010Z,4.63
2018-03-28T16:13:01.549Z,5.73
2018-03-28T16:15:29.008Z,6.80
2018-03-28T16:18:06.210Z,6.00
2018-03-28T16:20:38.307Z,5.97
2018-03-28T16:23:05.857Z,5.03
2018-03-28T16:25:33.290Z,7.77
2018-03-28T16:28:00.772Z,4.50
2018-03-28T16:30:28.213Z,4.67
2018-03-28T16:33:00.886Z,8.23
2018-03-28T16:35:28.349Z,8.10
2018-03-28T16:37:55.768Z,6.50
2018-03-28T16:40:23.210Z,6.63
2018-03-28T16:42:50.672Z,6.30
2018-03-28T16:45:18.122Z,6.00
2018-03-28T16:47:45.581Z,5.93
2018-03-28T16:50:13.010Z,4.57
2018-03-28T16:52:40.441Z,5.83
2018-03-28T16:55:08.693Z,5.33
2018-03-28T16:57:36.114Z,5.10
2018-03-28T17:00:03.566Z,6.87
2018-03-28T17:02:31.009Z,4.40
2018-03-28T17:04:59.230Z,4.63
2018-03-28T17:07:26.671Z,5.73
2018-03-28T17:09:54.111Z,4.73
2018-03-28T17:12:21.610Z,6.80
2018-03-28T17:14:49.043Z,4.80
2018-03-28T17:17:16.494Z,4.73
2018-03-28T17:19:43.942Z,4.73
2018-03-28T17:22:11.393Z,4.70
2018-03-28T17:24:39.622Z,9.70
2018-03-28T17:27:07.052Z,4.20
2018-03-28T17:29:34.865Z,4.37
2018-03-28T17:32:02.331Z,4.93
2018-03-28T17:34:29.793Z,4.37
2018-03-28T17:36:57.245Z,4.10
2018-03-28T17:39:24.702Z,5.13
2018-03-28T17:41:52.285Z,4.70
2018-03-28T17:44:19.765Z,4.73
2018-03-28T17:46:47.201Z,8.23
2018-03-28T17:49:14.749Z,3.80
2018-03-28T17:51:42.384Z,7.03
2018-03-28T17:54:09.820Z,4.13
2018-03-28T17:56:37.277Z,4.20
2018-03-28T17:59:04.721Z,4.17
2018-03-28T18:01:32.206Z,4.60
2018-03-28T18:03:59.641Z,4.70
2018-03-28T18:06:27.263Z,4.67
2018-03-28T18:08:54.736Z,11.20
2018-03-28T18:11:22.198Z,8.43
2018-03-28T18:13:49.645Z,4.23
2018-03-28T18:16:17.154Z,4.27
2018-03-28T18:18:44.542Z,4.90
2018-03-28T18:21:12.201Z,5.00
2018-03-28T18:23:40.410Z,7.90
2018-03-28T18:26:08.007Z,4.60
2018-03-28T18:28:35.454Z,5.70
2018-03-28T18:31:02.908Z,3.70
2018-03-28T18:33:30.361Z,5.30
2018-03-28T18:35:57.803Z,4.90
2018-03-28T18:38:25.241Z,6.50
2018-03-28T18:40:52.902Z,5.00
2018-03-28T18:43:20.438Z,5.70
2018-03-28T18:45:47.874Z,4.60
2018-03-28T18:48:15.351Z,4.70
2018-03-28T18:50:42.785Z,5.57
2018-03-28T18:53:10.233Z,6.33
2018-03-28T18:55:37.678Z,4.63
2018-03-28T18:58:05.100Z,4.63
2018-03-28T19:00:32.556Z,4.70
2018-03-28T19:03:03.813Z,4.80
2018-03-28T19:05:31.282Z,5.90
2018-03-28T19:07:58.719Z,6.37
2018-03-28T19:10:26.159Z,11.17
2018-03-28T19:12:53.622Z,6.70
2018-03-28T19:15:21.077Z,6.10
2018-03-28T19:17:49.298Z,5.90
2018-03-28T19:20:16.741Z,4.40
2018-03-28T19:22:44.178Z,4.03
2018-03-28T19:25:11.636Z,5.03
2018-03-28T19:27:39.084Z,3.93
2018-03-28T19:30:06.548Z,5.20
2018-03-28T19:32:34.006Z,5.93
2018-03-28T19:35:02.218Z,5.13
2018-03-28T19:37:29.677Z,7.07
2018-03-28T19:39:57.109Z,4.97
2018-03-28T19:42:24.556Z,4.50
2018-03-28T19:44:52.011Z,12.70
2018-03-28T19:47:19.456Z,4.80
2018-03-28T19:49:46.904Z,4.83
2018-03-28T19:52:14.469Z,2.90
2018-03-28T19:54:41.915Z,2.37
2018-03-28T19:57:09.374Z,3.40
2018-03-28T19:59:36.797Z,4.20
2018-03-28T20:02:04.254Z,2.40
2018-03-28T20:04:32.470Z,2.60
2018-03-28T20:06:59.893Z,3.93
2018-03-28T20:09:27.342Z,2.33
2018-03-28T20:11:54.806Z,2.80
2018-03-28T20:14:22.652Z,2.80
2018-03-28T20:16:50.105Z,3.37
2018-03-28T20:19:17.547Z,3.33
2018-03-28T20:21:45.019Z,3.07
2018-03-28T20:24:12.459Z,3.07
2018-03-28T20:26:39.913Z,3.30
2018-03-28T20:29:07.361Z,3.83
2018-03-28T20:31:35.577Z,3.10
2018-03-28T20:34:03.019Z,3.53
2018-03-28T20:36:30.633Z,3.17
2018-03-28T20:38:58.085Z,3.60
2018-03-28T20:41:25.571Z,3.17
2018-03-28T20:43:53.011Z,3.50
2018-03-28T20:46:20.465Z,3.30
2018-03-28T20:48:47.900Z,3.23
2018-03-28T20:51:15.369Z,4.37
2018-03-28T20:53:42.803Z,3.20
2018-03-28T20:56:10.245Z,3.60
2018-03-28T20:58:37.690Z,3.80
2018-03-28T21:01:05.512Z,3.30
2018-03-28T21:03:32.963Z,3.07
2018-03-28T21:06:00.436Z,3.83
2018-03-28T21:08:27.985Z,3.10
2018-03-28T21:10:55.446Z,3.80
2018-03-28T21:13:22.875Z,3.50
2018-03-28T21:15:50.717Z,3.20
2018-03-28T21:18:18.182Z,3.03
2018-03-28T21:20:45.617Z,4.43
2018-03-28T21:23:13.072Z,3.73
2018-03-28T21:25:40.865Z,4.50
2018-03-28T21:28:08.313Z,3.47
2018-03-28T21:30:35.745Z,3.30
2018-03-28T21:33:03.986Z,4.13
2018-03-28T21:35:31.453Z,4.50
2018-03-28T21:37:58.876Z,3.80
2018-03-28T21:40:26.337Z,4.17
2018-03-28T21:42:53.764Z,3.80
2018-03-28T21:45:21.224Z,3.73
2018-03-28T21:47:48.745Z,3.90
2018-03-28T21:50:16.195Z,5.10
2018-03-28T21:52:43.658Z,5.70
2018-03-28T21:55:11.094Z,5.17
2018-03-28T21:57:38.529Z,5.37
2018-03-28T22:00:06.004Z,4.63
2018-03-28T22:02:33.438Z,3.80
2018-03-28T22:05:00.943Z,3.77
2018-03-28T22:07:28.374Z,6.30
2018-03-28T22:09:55.806Z,4.40
2018-03-28T22:12:23.266Z,5.30
2018-03-28T22:14:50.698Z,3.80
2018-03-28T22:17:18.146Z,4.50
2018-03-28T22:19:45.594Z,4.23
2018-03-28T22:22:13.060Z,5.17
2018-03-28T22:24:40.532Z,4.10
2018-03-28T22:27:07.997Z,4.00
2018-03-28T22:29:35.467Z,4.40
2018-03-28T22:32:02.939Z,4.33
2018-03-28T22:34:30.607Z,4.30
2018-03-28T22:36:58.047Z,4.30
2018-03-28T22:39:25.477Z,4.27
2018-03-28T22:41:52.952Z,4.80
2018-03-28T22:44:20.404Z,4.93
2018-03-28T22:46:47.852Z,3.73
2018-03-28T22:49:15.486Z,3.40
2018-03-28T22:51:43.004Z,4.93
2018-03-28T22:54:10.465Z,4.50
2018-03-28T22:56:37.912Z,3.93
2018-03-28T22:59:05.348Z,4.90
2018-03-28T23:01:32.830Z,4.93
2018-03-28T23:04:00.273Z,6.93
2018-03-28T23:06:27.746Z,8.83
2018-03-28T23:08:55.166Z,4.53
2018-03-28T23:11:22.626Z,7.27
2018-03-28T23:13:50.308Z,4.80
2018-03-28T23:16:17.741Z,4.90
2018-03-28T23:18:45.209Z,4.70
2018-03-28T23:21:12.872Z,5.00
2018-03-28T23:23:40.316Z,6.70
2018-03-28T23:26:07.776Z,8.73
2018-03-28T23:28:35.207Z,5.73
2018-03-28T23:31:02.670Z,5.30
2018-03-28T23:33:30.106Z,4.80
2018-03-28T23:35:58.324Z,7.03
2018-03-28T23:38:26.015Z,8.77
2018-03-28T23:40:53.480Z,5.37
2018-03-28T23:43:20.947Z,4.07
2018-03-28T23:45:48.380Z,6.17
2018-03-28T23:48:15.821Z,4.00
2018-03-28T23:50:43.277Z,4.77
2018-03-28T23:53:10.727Z,5.30
2018-03-28T23:55:38.936Z,4.33
2018-03-28T23:58:06.366Z,3.80
